Welcome to our new website - Welkom op onze vernieuwde website - Bienvenue sur notre nouveau site web - Willkommen auf unserer neuen Website
Check our progress frequently. Prüfen Sie unsere Fortschritte regelmäßig. Consultez notre progression fréquemment. Komt u straks nog eens

KNMI Weersverwachting is alleen beschikbaar in de Nederlandse Taal, Ongeacht welke taal u kiest.
KNMI weather forecast is only available in the Dutch language, No matter what language you choose.







Meteo Oudkarspel - De weer weet site voor Langedijk

Blijf op de hoogte van het actuele weer, Keep up to date with the current weather.



Lokaal brandgevaar
CBI


Regionaal natuur brand risico: Meer informatie


Mijn Webcam 1 Meer informatie My webcam


Mijn Webcam 2 Meer informatie My webcam 2


Onweer radar Meer informatie blitzortung!


Regen radar Meer informatie rain snow radar


Bezoek onze andere website:

Template - Davis WeatherLink Version
Vantage Veu

Template - Meteotemplate

Template - HomeWeatherStation

PDøROK Multimedia

Meteo Broek Op Langedijk

Lief LangedijkLief Langedijk

Dé fietsenmaker van Langedijk en omstrekenAxel Noort dé fietsenmaker

Ijsvereniging Volharding

Meteo Tuitjenhorn

Meteo Delfzijl

Meteo SauwerdMeteo Sauwerd

WeerstationMeteo Sauwerd

Weerstation Noordbergum

Weerstation ParkstadWeerstation Parkstad

Norderney



Het weer levert geen direct gevaar op.    Er zijn geen waarschuwingen afgegeven.

METAR rapporten vliegvelden

   
EHKD - De Kooy (navy), Netherlands
Afstand tot: N 23 km
Gewijzigd: 15-Oct-2019 02:55
Bewolking  
Bewolking  
   Wind: Zuiden 18.5 km/h
Wind: Zuiden 18.5 km/h
Temperatuur: 15°C
Dauwpunt: 14°C
Vochtigheid: 94%
Barometer: 1003 hPa
Bewolking: Bewolking
Zicht: meer dan 10 km
Bewolking: Bewolking 12000 ft
EHKD 150055Z AUTO 17010KT 140V200 9999 OVC120 15/14 Q1003 BLU
EHAM - Amsterdam/Schiph, Netherlands
Afstand tot: Z 44 km
Gewijzigd: 15-Oct-2019 02:55
Helder  
Helder  
   Wind: Zuiden 20.4 km/h
Wind: Zuiden 20.4 km/h
Temperatuur: 17°C
Dauwpunt: 14°C
Vochtigheid: 83%
Barometer: 1004 hPa
Zicht: meer dan 10 km
Bewolking: Helder
EHAM 150055Z 18011KT CAVOK 17/14 Q1004 NOSIG
EHQE - Hoorn-A Sea, Netherlands
Afstand tot: WNW 50 km
Gewijzigd: 15-Oct-2019 02:55
  
  
   Wind: ZZO 42.6 km/h
Wind: ZZO 42.6 km/h
Temperatuur: 17°C
Dauwpunt: 15°C
Vochtigheid: 88%
Barometer: 1002 hPa
Zicht: meer dan 10 km
EHQE 150055Z AUTO 16023KT 9999 ////// 17/15 Q1002 W///H///
EHVL - Vlieland Island, Netherlands
Afstand tot: N 58 km
Gewijzigd: 15-Oct-2019 02:55
Nevel, Bewolking  
Nevel, Bewolking  
   Wind: ZZO 25.9 km/h
Wind: ZZO 25.9 km/h
Temperatuur: 14°C
Dauwpunt: 13°C
Vochtigheid: 94%
Barometer: 1002 hPa
Bewolking: Bewolking
Zicht: 7 km
Bewolking: Bewolking 15000 ft
EHVL 150055Z AUTO 15014KT 7000 BR OVC150 14/13 Q1002 WHT
EHLW - Leeuwarden Rnlaf, Netherlands
Afstand tot: NO 85 km
Gewijzigd: 15-Oct-2019 02:55
Bewolking  
Bewolking  
   Wind: ZZO 14.8 km/h
Wind: ZZO 14.8 km/h
Temperatuur: 15°C
Dauwpunt: 14°C
Vochtigheid: 94%
Barometer: 1003 hPa
Bewolking: Bewolking
Zicht: meer dan 10 km
Bewolking: Grotendeels bewolkt 11000 ft,
Bewolking 24000 ft
EHLW 150055Z AUTO 15008KT 110V180 9999 BKN110 OVC240 15/14 Q1003 BLU
EHRD - Rotterdam Airpor, Netherlands
Afstand tot: ZZW 88 km
Gewijzigd: 15-Oct-2019 02:55
Gedeeltelijk bewolkt  
Gedeeltelijk bewolkt  
   Wind: ZW 16.7 km/h
Wind: ZW 16.7 km/h
Temperatuur: 17°C
Dauwpunt: 14°C
Vochtigheid: 83%
Barometer: 1004 hPa
Bewolking: Gedeeltelijk bewolkt
Zicht: meer dan 10 km
Bewolking: Gedeeltelijk bewolkt
EHRD 150055Z AUTO 22009KT 9999 NSC 17/14 Q1004 NOSIG
EHKV - K14-Fa-1c Sea, Netherlands
Afstand tot: NW 100 km
Gewijzigd: 15-Oct-2019 02:55
Gedeeltelijk bewolkt  
Gedeeltelijk bewolkt  
   Wind: Zuiden 42.6 km/h
Wind: Zuiden 42.6 km/h
Temperatuur: 17°C
Dauwpunt: 14°C
Vochtigheid: 83%
Barometer: 1002 hPa
Bewolking: Gedeeltelijk bewolkt
Zicht: meer dan 10 km
Bewolking: Gedeeltelijk bewolkt
EHKV 150055Z AUTO 19023KT 9999 NSC 17/14 Q1002 W///H///
EHMG - L9-Ff-1 Sea, Netherlands
Afstand tot: N 101 km
Gewijzigd: 15-Oct-2019 02:55
Gedeeltelijk bewolkt  
Gedeeltelijk bewolkt  
   Wind: ZZO 44.4 km/h
Wind: ZZO 44.4 km/h
Temperatuur: 16°C
Dauwpunt: 14°C
Vochtigheid: 88%
Barometer: 1003 hPa
Bewolking: Gedeeltelijk bewolkt
Zicht: meer dan 10 km
Bewolking: Gedeeltelijk bewolkt
EHMG 150055Z AUTO 15024KT 9999 NSC 16/14 Q1003 W///H///
EHDL - Deelen Rnlafb, Netherlands
Afstand tot: ZO 102 km
Gewijzigd: 15-Oct-2019 02:55
Bewolking  
Bewolking  
   Wind: Zuiden 13 km/h
Wind: Zuiden 13 km/h
Temperatuur: 17°C
Dauwpunt: 14°C
Vochtigheid: 83%
Barometer: 1005 hPa
Bewolking: Bewolking
Zicht: meer dan 10 km
Bewolking: Gedeeltelijk bewolkt 11000 ft,
Bewolking 26000 ft
EHDL 150055Z AUTO 17007KT 130V210 9999 SCT110 OVC260 17/14 Q1005 BLU
EHPG - P11-B Sea, Netherlands
Afstand tot: WZW 106 km
Gewijzigd: 15-Oct-2019 02:55
Licht bewolkt  
Licht bewolkt  
   Wind: varieert Kalm
Wind: varieert Kalm
Temperatuur: 16°C
Dauwpunt: 14°C
Vochtigheid: 88%
Barometer: 1002 hPa
Bewolking: Licht bewolkt
Zicht: meer dan 10 km
Bewolking: Licht bewolkt 2100 ft
EHPG 150055Z AUTO /////KT 9999 FEW021 16/14 Q1002 W///H///
EHMA - Awg-1 Sea, Netherlands
Afstand tot: NO 116 km
Gewijzigd: 15-Oct-2019 02:55
Gedeeltelijk bewolkt  
Gedeeltelijk bewolkt  
   Wind: ZO 38.9 km/h
Wind: ZO 38.9 km/h
Temperatuur: 14°C
Dauwpunt: 14°C
Vochtigheid: 100%
Barometer: 1003 hPa
Bewolking: Gedeeltelijk bewolkt
Zicht: 7 km
Bewolking: Gedeeltelijk bewolkt
EHMA 150055Z AUTO 13021KT 7000 NSC 14/14 Q1003 W///H///
EHSC - Goeree Le Sea, Netherlands
Afstand tot: ZW 116 km
Gewijzigd: 15-Oct-2019 02:55
  
  
   Wind: ZW 37 km/h
Wind: ZW 37 km/h
Temperatuur: 16°C
Dauwpunt: 14°C
Vochtigheid: 88%
Barometer: 1003 hPa
Zicht: meer dan 10 km
EHSC 150055Z AUTO 22020KT 9999 ///////// 16/14 Q1003 W15/H8
EHJR - K13-A Sea, Netherlands
Afstand tot: WNW 120 km
Gewijzigd: 15-Oct-2019 02:55
  
  
   Wind: ZZW 40.7 km/h
Wind: ZZW 40.7 km/h
Temperatuur: 16°C
Dauwpunt: 14°C
Vochtigheid: 88%
EHJR 150055Z AUTO 20022KT //// // ///////// 16/14 Q//// RE// W16/H14
EHGG - Groningen/Eelde, Netherlands
Afstand tot: ONO 126 km
Gewijzigd: 15-Oct-2019 02:55
Gedeeltelijk bewolkt  
Gedeeltelijk bewolkt  
   Wind: OZO 11.1 km/h
Wind: OZO 11.1 km/h
Temperatuur: 14°C
Dauwpunt: 13°C
Vochtigheid: 94%
Barometer: 1004 hPa
Bewolking: Gedeeltelijk bewolkt
Zicht: 6 km
Bewolking: Gedeeltelijk bewolkt
EHGG 150055Z AUTO 11006KT 080V140 6000 NSC 14/13 Q1004 NOSIG
EHGR - Gilze-Rijen Rnla, Netherlands
Afstand tot: Z 128 km
Gewijzigd: 15-Oct-2019 02:55
Bewolking  
Bewolking  
   Wind: Zuiden 13 km/h
Wind: Zuiden 13 km/h
Temperatuur: 17°C
Dauwpunt: 13°C
Vochtigheid: 77%
Barometer: 1004 hPa
Bewolking: Bewolking
Zicht: meer dan 10 km
Bewolking: Bewolking 14000 ft
EHGR 150055Z AUTO 19007KT 140V220 9999 OVC140 17/13 Q1004 BLU
EHSA - Euro Platform, Netherlands
Afstand tot: ZW 130 km
Gewijzigd: 15-Oct-2019 02:55
  
  
   Wind: Zuiden 40.7 km/h
Wind: Zuiden 40.7 km/h
Temperatuur: 16°C
Dauwpunt: 14°C
Vochtigheid: 88%
Barometer: 1003 hPa
Zicht: meer dan 10 km
EHSA 150055Z AUTO 19022KT 9999 ///////// 16/14 Q1003 W14/H10
EHVK - Volkel Rnlafb, Netherlands
Afstand tot: ZZO 135 km
Gewijzigd: 15-Oct-2019 02:55
Bewolking  
Bewolking  
   Wind: Zuiden 13 km/h
Wind: Zuiden 13 km/h
Temperatuur: 17°C
Dauwpunt: 13°C
Vochtigheid: 77%
Barometer: 1005 hPa
Bewolking: Bewolking
Zicht: meer dan 10 km
Bewolking: Bewolking 24000 ft
EHVK 150055Z AUTO 18007KT 150V210 9999 OVC240 17/13 Q1005 BLU
EHWO - Woensdrecht Rnla, Netherlands
Afstand tot: ZZW 144 km
Gewijzigd: 15-Oct-2019 02:55
Bewolking  
Bewolking  
   Wind: ZW 18.5 km/h
Wind: ZW 18.5 km/h
Temperatuur: 17°C
Dauwpunt: 13°C
Vochtigheid: 77%
Barometer: 1004 hPa
Bewolking: Bewolking
Zicht: meer dan 10 km
Bewolking: Grotendeels bewolkt 9600 ft,
Bewolking 10000 ft
EHWO 150055Z AUTO 23010KT 9999 BKN096 OVC100 17/13 Q1004 BLU
EHEH - Eindhoven Rnlafb, Netherlands
Afstand tot: ZZO 146 km
Gewijzigd: 15-Oct-2019 02:55
Bewolking  
Bewolking  
   Wind: Zuiden 13 km/h
Wind: Zuiden 13 km/h
Temperatuur: 17°C
Dauwpunt: 14°C
Vochtigheid: 83%
Barometer: 1005 hPa
Bewolking: Bewolking
Zicht: meer dan 10 km
Bewolking: Bewolking 24000 ft
EHEH 150055Z AUTO 17007KT 9999 OVC240 17/14 Q1005 BLU
EDLV - Niederrhein, Germany
Afstand tot: ZO 154 km
Gewijzigd: 14-Oct-2019 23:50
Verouderd
Helder  
Helder  
   Wind: ZO 11.1 km/h
Wind: ZO 11.1 km/h
Temperatuur: 19°C
Dauwpunt: 14°C
Vochtigheid: 73%
Barometer: 1005 hPa
Zicht: meer dan 10 km
Bewolking: Helder
EDLV 142150Z 13006KT CAVOK 19/14 Q1005
 

Script ontwikkeld door  Saratoga-weather.org Aangepast voor de template door  Weerstation Leuven

U vindt ons ook hier:

Vereniging voor Weerkunde en Klimatologie

Het Weer Aktueel

WOW Nederland KNMI

UK Metoffice

European Weather Network

WeatherCloud

Weather Underground

Benelux Weer Netwerk

AWEKAS

WeatherlinkIP

Citizen Weather Observer Program (CWOP)

HAMweather, WeatherForYou, PWS Weather

        

Apparatuur in gebruik:

Weerstation
Davis - Vantage Veu

Weerprogramma
Meteobridge

Weercomputer
Carambola2 - MeteroBridge Pro (black)

Webleverancier
1Eurohosting

Hardwareleverancier 1
Uurwerk- & Meteospecialist Vlasma

Hardwareleverancier 2
Weerhuisje

Davis - Vantage Veu

Meteobridge

Carambola2 - MeteroBridge Pro (black)

1Eurohosting

Uurwerk- & Meteospecialist Vlasma

Weerhuisje


Alles over het weer rondom het weerstation van Meteo Oudkarspel, vind je hier. Dus alles onder 1 dak.

Everything about the weather around the Meteo Oudkarspel weather station can be found here. So everything under one roof..

Dus kom regelmatig terug, So come back regularly.


# #---------------------- version history # 3.20 2015-10-12 release 2.8b version